Time;durP1;ratioP1;P1;durP2;ratioP2;P2;SDS_P1;SDS_P2;PMS_P1;PMS_P2;Temp;Humidity;BMP_temperature;BMP_pressure;BME280_temperature;BME280_humidity;BME280_pressure;Samples;Min_cycle;Max_cycle;Signal;HPM_P1;HPM_P2
2023/07/13 00:01:51;;;;;;;0.63;0.30;;;22.80;99.90;;;23.04;46.73;101105.00;4855293;28;99115;-44
2023/07/13 00:04:21;;;;;;;0.77;0.40;;;22.80;99.90;;;23.04;47.07;101105.00;4854714;28;99954;-45
2023/07/13 00:06:47;;;;;;;0.70;0.27;;;22.80;99.90;;;23.02;47.20;101112.34;4857492;28;98613;-45
2023/07/13 00:09:16;;;;;;;0.80;0.30;;;22.80;99.90;;;23.02;46.76;101107.81;4859101;28;99607;-42
2023/07/13 00:11:43;;;;;;;0.47;0.20;;;22.80;99.90;;;23.04;47.56;101115.78;4860193;28;98146;-43
2023/07/13 00:14:10;;;;;;;0.33;0.30;;;22.80;99.90;;;23.02;47.56;101107.81;4892278;28;97953;-46
2023/07/13 00:16:38;;;;;;;1.20;0.50;;;22.80;99.90;;;23.02;47.38;101112.34;4897096;28;97738;-45
2023/07/13 00:19:05;;;;;;;0.40;0.40;;;22.80;99.90;;;23.02;46.37;101106.97;4893807;28;97431;-43
2023/07/13 00:21:31;;;;;;;0.40;0.37;;;22.80;99.90;;;23.01;47.72;101116.03;4894857;28;97381;-44
2023/07/13 00:23:57;;;;;;;0.80;0.33;;;22.80;99.90;;;23.00;47.52;101119.66;4901187;28;99468;-45
2023/07/13 00:26:23;;;;;;;0.73;0.40;;;22.80;99.90;;;22.98;47.69;101116.25;4891495;28;97887;-44
2023/07/13 00:39:51;;;;;;;1.03;0.40;;;22.60;99.90;;;22.80;46.74;101108.66;4887496;28;97262;-44
2023/07/13 00:42:17;;;;;;;1.43;0.43;;;22.50;99.90;;;22.80;47.52;101108.66;4898895;28;97730;-43
2023/07/13 00:45:06;;;;;;;1.07;0.97;;;22.50;99.90;;;22.81;46.86;101110.34;4895112;28;107042;-45
2023/07/13 00:47:32;;;;;;;4.10;0.40;;;22.50;99.90;;;22.79;47.94;101117.69;4890660;28;100883;-46
2023/07/13 00:49:59;;;;;;;2.00;0.30;;;22.50;99.90;;;22.79;47.85;101112.31;4897492;28;109860;-44
2023/07/13 00:52:25;;;;;;;0.67;0.30;;;22.50;99.90;;;22.74;41.78;101109.16;4888438;28;97383;-44
2023/07/13 00:54:50;;;;;;;2.80;0.40;;;22.50;97.80;;;22.75;45.94;101115.38;4894144;28;97160;-44
2023/07/13 00:57:20;;;;;;;1.47;0.57;;;22.40;99.20;;;22.75;48.25;101105.47;4889515;28;104961;-44
2023/07/13 01:00:08;;;;;;;1.13;0.50;;;22.40;99.90;;;22.72;43.86;101105.72;4893631;28;97688;-42
2023/07/13 01:02:38;;;;;;;1.70;0.40;;;22.40;99.90;;;22.69;48.60;101100.56;4899069;28;97280;-44
2023/07/13 01:05:17;;;;;;;0.87;0.40;;;22.40;99.90;;;22.67;47.61;101107.91;4898551;28;98159;-45
2023/07/13 01:07:45;;;;;;;1.87;0.50;;;22.40;99.90;;;22.64;43.26;101107.31;4904275;28;98266;-44
2023/07/13 01:10:12;;;;;;;3.67;0.50;;;22.30;98.60;;;22.63;48.13;101094.84;4899774;28;104813;-44
2023/07/13 01:12:38;;;;;;;0.27;0.27;;;22.30;99.90;;;22.62;47.23;101102.06;4896265;28;97268;-43
2023/07/13 01:15:06;;;;;;;1.03;0.40;;;22.30;99.90;;;22.63;47.52;101095.69;4909824;28;125754;-46
2023/07/13 01:17:34;;;;;;;0.40;0.40;;;22.30;99.90;;;22.58;45.89;101103.28;4894483;28;97915;-46
2023/07/13 01:20:00;;;;;;;1.43;0.60;;;22.30;98.90;;;22.59;48.69;101105.00;4891861;28;97103;-53
2023/07/13 01:22:26;;;;;;;3.37;0.57;;;22.20;99.90;;;22.55;45.30;101103.50;4892682;28;97455;-43
2023/07/13 01:24:54;;;;;;;0.30;0.20;;;22.20;99.20;;;22.58;48.10;101105.13;4897106;28;98121;-44
2023/07/13 01:27:25;;;;;;;0.70;0.30;;;22.20;99.90;;;22.57;48.73;101106.94;4895775;28;104091;-43
2023/07/13 01:29:53;;;;;;;1.00;0.33;;;22.30;99.90;;;22.60;48.49;101098.63;4892045;28;99321;-44
2023/07/13 01:32:23;;;;;;;0.50;0.40;;;22.30;99.90;;;22.62;48.90;101098.50;4898310;28;97518;-43
2023/07/13 01:34:54;;;;;;;0.63;0.40;;;22.30;99.90;;;22.61;44.93;101111.09;4894157;28;97519;-44
2023/07/13 01:37:20;;;;;;;0.50;0.40;;;22.40;99.90;;;22.63;47.13;101098.38;4897191;28;97431;-43
2023/07/13 01:39:46;;;;;;;1.37;0.50;;;22.30;99.90;;;22.60;47.26;101109.38;4897886;28;97489;-42
2023/07/13 01:42:13;;;;;;;4.20;0.97;;;22.30;99.90;;;22.62;47.55;101103.88;4874085;28;97520;-44
2023/07/13 01:44:39;;;;;;;1.57;0.40;;;22.30;99.90;;;22.62;48.58;101103.88;4897448;28;97466;-43
2023/07/13 01:47:05;;;;;;;3.93;0.47;;;22.30;99.90;;;22.59;45.08;101098.75;4897710;28;113576;-44
2023/07/13 01:49:31;;;;;;;1.83;0.57;;;22.30;99.60;;;22.53;45.26;101106.31;4911267;28;97991;-44
2023/07/13 01:51:57;;;;;;;1.70;0.50;;;22.20;99.90;;;22.55;48.78;101108.88;4889603;28;97818;-47
2023/07/13 01:54:23;;;;;;;1.00;0.30;;;22.20;99.90;;;22.57;47.67;101115.00;4898432;28;106734;-44
2023/07/13 01:56:49;;;;;;;2.83;0.63;;;22.20;99.90;;;22.53;46.26;101111.69;4897894;28;98273;-44
2023/07/13 01:59:14;;;;;;;1.07;0.47;;;22.20;99.80;;;22.51;48.49;101104.72;4892267;28;97207;-43
2023/07/13 02:01:40;;;;;;;1.40;0.27;;;22.10;99.90;;;22.49;48.46;101104.00;4893168;28;119540;-45
2023/07/13 02:04:06;;;;;;;0.63;0.30;;;22.10;99.90;;;22.49;49.11;101104.00;4898216;28;99318;-45
2023/07/13 02:06:32;;;;;;;1.70;0.53;;;22.10;99.90;;;22.40;44.16;101105.56;4895268;28;114343;-44
2023/07/13 02:08:58;;;;;;;1.70;0.60;;;22.10;99.20;;;22.38;45.70;101117.41;4899052;28;97677;-43
2023/07/13 02:11:24;;;;;;;0.40;0.30;;;22.00;99.90;;;22.38;48.99;101122.78;4903023;28;98604;-43
2023/07/13 02:13:51;;;;;;;0.53;0.37;;;22.00;99.90;;;22.43;48.76;101120.63;4898189;28;100514;-44
2023/07/13 02:16:17;;;;;;;2.03;0.50;;;22.10;99.90;;;22.41;47.62;101122.53;4896256;28;97288;-44
2023/07/13 02:18:43;;;;;;;0.73;0.27;;;22.10;99.90;;;22.45;49.56;101119.50;4890549;28;111004;-43
2023/07/13 02:21:08;;;;;;;0.30;0.30;;;22.10;99.90;;;22.49;49.44;101120.13;4896550;28;97422;-44
2023/07/13 02:23:34;;;;;;;0.60;0.30;;;22.20;99.90;;;22.50;47.84;101116.44;4898357;28;114758;-48
2023/07/13 02:26:04;;;;;;;0.53;0.40;;;22.20;99.90;;;22.51;47.75;101123.53;4896800;28;100122;-43
2023/07/13 02:28:30;;;;;;;0.40;0.30;;;22.20;99.90;;;22.49;49.32;101125.50;4914603;28;97930;-44
2023/07/13 02:31:12;;;;;;;1.23;0.40;;;22.20;99.90;;;22.48;48.02;101123.78;4889477;28;97835;-43
2023/07/13 02:33:38;;;;;;;3.00;0.47;;;22.10;99.90;;;22.46;49.17;101118.53;4892649;28;100992;-44
2023/07/13 02:36:05;;;;;;;0.53;0.30;;;22.10;99.90;;;22.47;49.20;101122.06;4898165;28;97921;-44
2023/07/13 02:38:36;;;;;;;0.20;0.20;;;22.10;99.90;;;22.47;49.50;101122.06;4897373;28;97513;-43
2023/07/13 02:41:03;;;;;;;1.00;0.30;;;22.20;99.90;;;22.50;49.46;101121.81;4901738;28;101606;-44
2023/07/13 02:43:29;;;;;;;1.50;0.50;;;22.20;99.90;;;22.46;48.10;101126.59;4896140;28;98175;-46
2023/07/13 02:45:55;;;;;;;1.40;0.37;;;22.10;99.90;;;22.43;45.82;101131.38;4895578;28;98836;-46
2023/07/13 02:48:21;;;;;;;2.13;0.40;;;22.10;99.90;;;22.41;48.92;101122.53;4895136;28;97435;-44
2023/07/13 02:50:47;;;;;;;0.40;0.40;;;22.00;99.90;;;22.36;46.54;101125.59;4895148;28;97304;-43
2023/07/13 02:53:13;;;;;;;3.33;0.90;;;22.00;99.90;;;22.32;47.04;101128.66;4900042;28;101823;-45
2023/07/13 02:55:40;;;;;;;0.50;0.37;;;21.90;99.90;;;22.32;49.58;101134.03;4900751;28;122909;-44
2023/07/13 02:58:07;;;;;;;0.97;0.30;;;21.90;99.90;;;22.25;49.29;101118.34;4894466;28;97373;-44
2023/07/13 03:00:32;;;;;;;0.73;0.43;;;21.80;99.90;;;22.32;49.81;101113.38;4897487;28;97340;-43
2023/07/13 03:02:58;;;;;;;0.53;0.30;;;21.90;99.90;;;22.33;49.88;101124.97;4906163;28;123176;-46
2023/07/13 03:05:24;;;;;;;0.87;0.47;;;22.00;99.90;;;22.34;48.37;101130.22;4896358;28;123217;-43
2023/07/13 03:07:50;;;;;;;0.70;0.50;;;22.00;99.90;;;22.29;44.55;101131.56;4905973;28;97491;-45
2023/07/13 03:10:16;;;;;;;2.20;0.60;;;22.00;99.90;;;22.30;47.72;101135.97;4893131;28;103771;-43
2023/07/13 03:12:42;;;;;;;1.00;0.40;;;21.90;99.90;;;22.33;49.95;101141.09;4891735;28;112245;-42
2023/07/13 03:15:08;;;;;;;0.77;0.40;;;22.00;99.90;;;22.23;43.77;101131.06;4894537;28;111542;-44
2023/07/13 03:17:34;;;;;;;0.70;0.50;;;21.90;99.90;;;22.27;45.68;101143.28;4895844;28;97950;-44
2023/07/13 03:20:00;;;;;;;0.70;0.30;;;21.90;99.90;;;22.24;46.56;101132.75;4903066;28;114654;-44
2023/07/13 03:22:26;;;;;;;1.80;0.40;;;21.90;99.90;;;22.25;49.76;101131.78;4895170;28;97921;-44
2023/07/13 03:24:51;;;;;;;2.40;0.53;;;21.90;99.90;;;22.22;46.72;101129.34;4891522;28;98848;-44
2023/07/13 03:27:18;;;;;;;0.60;0.27;;;21.90;99.90;;;22.25;46.42;101137.16;4894354;28;97338;-46
2023/07/13 03:29:44;;;;;;;1.60;0.60;;;21.90;99.90;;;22.15;44.04;101144.25;4898183;28;97373;-43
2023/07/13 03:32:10;;;;;;;1.57;0.40;;;21.80;99.90;;;22.21;49.74;101149.13;4890576;28;114030;-46
2023/07/13 03:34:36;;;;;;;0.60;0.40;;;21.80;99.90;;;22.23;49.60;101147.19;4907894;28;107871;-43
2023/07/13 03:37:01;;;;;;;2.00;0.30;;;21.90;99.90;;;22.20;49.99;101149.25;4892290;28;97454;-43
2023/07/13 03:39:28;;;;;;;1.63;0.50;;;21.90;99.90;;;22.20;45.41;101160.00;4897399;28;97335;-44
2023/07/13 03:41:54;;;;;;;4.23;0.50;;;21.90;99.90;;;22.13;46.79;101150.69;4889698;28;99041;-44
2023/07/13 03:44:19;;;;;;;0.90;0.50;;;21.80;99.90;;;22.06;48.45;101161.03;4896129;28;119728;-43
2023/07/13 03:46:45;;;;;;;2.00;0.33;;;21.70;99.90;;;22.06;47.15;101155.66;4901445;28;97497;-49
2023/07/13 03:49:11;;;;;;;2.60;0.60;;;21.60;99.90;;;22.02;44.33;101159.53;4898411;28;103106;-44
2023/07/13 03:51:37;;;;;;;0.90;0.50;;;21.60;99.90;;;22.06;48.60;101166.41;4894308;28;97480;-47
2023/07/13 03:54:03;;;;;;;5.30;0.40;;;21.70;99.90;;;22.02;46.44;101159.53;4906308;28;103420;-43
2023/07/13 03:56:30;;;;;;;1.23;0.50;;;21.70;99.90;;;22.04;48.05;101162.97;4891327;28;97988;-43
2023/07/13 03:58:56;;;;;;;1.00;0.30;;;21.70;99.90;;;21.94;49.94;101167.31;4894754;28;97303;-43
2023/07/13 04:01:27;;;;;;;0.40;0.37;;;21.50;99.90;;;21.90;45.38;101171.19;4890647;28;98100;-43
2023/07/13 04:03:53;;;;;;;0.37;0.20;;;21.50;99.90;;;21.89;45.39;101174.88;4887880;28;97696;-42
2023/07/13 04:06:23;;;;;;;1.07;0.40;;;21.50;99.90;;;21.84;46.55;101177.00;4893911;28;97949;-46
2023/07/13 04:08:52;;;;;;;1.03;0.37;;;21.40;99.90;;;21.90;50.67;101173.88;4903006;28;97687;-50
2023/07/13 04:11:20;;;;;;;0.60;0.40;;;21.40;99.90;;;21.89;50.98;101169.50;4893713;28;97828;-44
2023/07/13 04:13:47;;;;;;;2.57;0.47;;;21.50;99.90;;;21.87;46.67;101171.44;4896161;28;99508;-53
2023/07/13 04:16:15;;;;;;;0.53;0.40;;;21.50;99.90;;;21.93;49.61;101174.50;4896307;28;97492;-44
2023/07/13 04:18:41;;;;;;;1.73;0.40;;;21.60;99.90;;;22.00;50.62;101176.75;4895407;28;97184;-45
2023/07/13 04:21:07;;;;;;;1.77;0.50;;;21.60;99.90;;;21.97;47.93;101178.66;4893743;28;97267;-45
2023/07/13 04:23:33;;;;;;;2.43;0.90;;;21.70;99.90;;;22.01;48.02;101184.69;4894571;28;97355;-43
2023/07/13 04:26:04;;;;;;;0.47;0.33;;;21.70;99.90;;;22.01;45.66;101192.75;4881718;28;97187;-44
2023/07/13 04:28:30;;;;;;;2.03;0.60;;;21.70;99.90;;;22.04;50.49;101183.59;4893555;28;97423;-43
2023/07/13 04:30:56;;;;;;;0.80;0.50;;;21.70;99.90;;;22.03;50.60;101182.75;4887819;28;98286;-44
2023/07/13 04:33:22;;;;;;;0.50;0.33;;;21.70;99.90;;;21.95;44.69;101186.00;4891457;28;116686;-45
2023/07/13 04:35:54;;;;;;;0.77;0.57;;;21.60;99.90;;;22.01;50.25;101190.06;4896677;28;97564;-45
2023/07/13 04:38:20;;;;;;;2.07;0.67;;;21.60;99.90;;;21.87;44.71;101182.19;4890798;28;97375;-46
2023/07/13 04:40:47;;;;;;;1.53;0.57;;;21.50;99.90;;;21.85;45.03;101189.50;4895699;28;123114;-43
2023/07/13 04:43:13;;;;;;;1.40;0.30;;;21.50;99.90;;;21.78;45.84;101181.03;4892329;28;97502;-46
2023/07/13 04:45:39;;;;;;;0.83;0.40;;;21.30;99.90;;;21.84;50.73;101187.75;4892916;28;97608;-42
2023/07/13 04:48:05;;;;;;;2.00;0.57;;;21.30;99.90;;;21.84;51.08;101193.97;4889119;28;109808;-45
2023/07/13 04:50:31;;;;;;;3.83;0.60;;;21.40;99.90;;;21.85;50.20;101192.19;4895292;28;97946;-44
2023/07/13 04:52:57;;;;;;;1.13;0.50;;;21.40;99.90;;;21.87;49.71;101187.56;4886165;28;118010;-43
2023/07/13 04:55:22;;;;;;;3.17;0.30;;;21.50;99.90;;;21.90;50.09;101188.16;4899934;28;97400;-43
2023/07/13 04:57:48;;;;;;;1.90;0.40;;;21.50;99.90;;;21.90;46.90;101193.53;4897982;28;109419;-46
2023/07/13 05:00:18;;;;;;;1.93;0.67;;;21.50;99.90;;;21.79;45.40;101195.31;4893743;28;120493;-44
2023/07/13 05:02:45;;;;;;;2.67;0.60;;;21.40;99.90;;;21.85;46.41;101194.88;4891824;28;97682;-47
2023/07/13 05:05:11;;;;;;;1.47;0.60;;;21.40;99.90;;;21.87;49.83;101198.28;4892515;28;97717;-45
2023/07/13 05:07:37;;;;;;;0.77;0.40;;;21.50;99.90;;;21.83;49.56;101196.78;4900376;28;97639;-49
2023/07/13 05:10:03;;;;;;;2.90;0.50;;;21.50;99.90;;;21.77;46.81;101197.25;4896348;28;109618;-44
2023/07/13 05:12:30;;;;;;;2.87;0.40;;;21.40;99.90;;;21.81;48.00;101204.09;4893886;28;97722;-44
2023/07/13 05:14:56;;;;;;;1.60;0.60;;;21.40;99.90;;;21.81;51.02;101204.09;4889908;28;97558;-44
2023/07/13 05:17:22;;;;;;;0.73;0.43;;;21.40;99.90;;;21.83;48.62;101207.53;4893689;28;97361;-43
2023/07/13 05:19:47;;;;;;;0.50;0.30;;;21.40;99.90;;;21.84;50.95;101207.41;4890529;28;114596;-44
2023/07/13 05:22:13;;;;;;;0.60;0.50;;;21.40;99.90;;;21.86;48.93;101207.31;4891736;28;97544;-48
2023/07/13 05:24:39;;;;;;;5.40;0.40;;;21.50;99.90;;;21.80;48.58;101202.38;4893062;28;112094;-44
2023/07/13 05:27:05;;;;;;;2.20;0.30;;;21.40;99.90;;;21.69;50.81;101212.09;4875969;28;116626;-43
2023/07/13 05:29:31;;;;;;;1.93;0.70;;;21.30;99.90;;;21.76;49.71;101217.03;4892346;28;98514;-45
2023/07/13 05:31:57;;;;;;;2.03;0.40;;;21.30;99.90;;;21.63;48.37;101212.53;4895288;28;98729;-46
2023/07/13 05:34:23;;;;;;;2.20;0.60;;;21.20;99.90;;;21.67;47.34;101218.53;4893108;28;97512;-48
2023/07/13 05:36:49;;;;;;;3.47;0.70;;;21.30;99.90;;;21.64;51.08;101222.31;4893221;28;98252;-44
2023/07/13 05:39:15;;;;;;;1.43;0.73;;;21.20;99.90;;;21.71;49.23;101221.88;4897747;28;97148;-43
2023/07/13 05:41:41;;;;;;;1.03;0.50;;;21.30;99.90;;;21.75;47.71;101221.53;4894158;28;98724;-43
2023/07/13 05:44:07;;;;;;;1.07;0.60;;;21.40;99.90;;;21.76;47.90;101217.03;4893273;28;97580;-45
2023/07/13 05:46:33;;;;;;;1.83;0.90;;;21.40;99.90;;;21.73;49.20;101228.00;4891823;28;98127;-44
2023/07/13 05:48:59;;;;;;;0.57;0.40;;;21.40;99.90;;;21.75;48.09;101228.72;4887674;28;98192;-44
2023/07/13 05:51:25;;;;;;;0.80;0.30;;;21.30;99.90;;;21.72;47.15;101231.66;4891840;28;97738;-43
2023/07/13 05:53:51;;;;;;;1.03;0.50;;;21.30;99.90;;;21.72;47.76;101239.69;4893395;28;97789;-44
2023/07/13 05:56:16;;;;;;;3.00;0.83;;;21.30;99.90;;;21.75;50.35;101242.16;4904733;28;117180;-43
2023/07/13 05:58:42;;;;;;;1.20;0.60;;;21.30;99.90;;;21.78;50.39;101236.56;4897333;28;119200;-44
2023/07/13 06:01:13;;;;;;;2.30;0.50;;;21.40;99.90;;;21.74;48.01;101240.44;4894242;28;116334;-45
2023/07/13 06:03:39;;;;;;;1.60;0.40;;;21.40;99.90;;;21.75;49.02;101242.16;4892659;28;101502;-42
2023/07/13 06:06:06;;;;;;;3.00;0.80;;;21.40;99.90;;;21.72;50.47;101242.38;5016875;22;99461;-42
2023/07/13 06:08:33;;;;;;;2.03;0.53;;;21.30;99.90;;;21.69;51.49;101238.94;4943383;28;98698;-47
2023/07/13 06:11:23;;;;;;;2.47;0.77;;;21.30;99.90;;;21.73;49.14;101238.72;4947036;28;97695;-45
2023/07/13 06:13:50;;;;;;;3.47;0.80;;;21.40;99.90;;;21.73;49.54;101249.47;4930292;28;97362;-46
2023/07/13 06:16:16;;;;;;;0.83;0.37;;;21.50;99.90;;;21.73;49.79;101249.47;4931035;28;103781;-45
2023/07/13 06:18:43;;;;;;;0.73;0.40;;;21.40;99.90;;;21.75;50.72;101250.22;4932873;28;102176;-43
2023/07/13 06:21:18;;;;;;;2.50;0.60;;;21.50;99.90;;;21.71;50.57;101257.63;4925475;28;99686;-44
2023/07/13 06:23:47;;;;;;;2.13;0.73;;;21.40;99.90;;;21.65;48.83;101253.56;4930088;28;100089;-43
2023/07/13 06:26:13;;;;;;;2.67;0.40;;;21.40;99.90;;;21.69;51.35;101255.03;4923370;28;97710;-44
2023/07/13 06:28:42;;;;;;;4.30;0.70;;;21.30;99.90;;;21.68;49.33;101264.06;4919007;28;104669;-44
2023/07/13 06:31:10;;;;;;;4.93;0.70;;;21.40;99.90;;;21.68;49.08;101261.38;4914820;28;97377;-44
2023/07/13 06:33:37;;;;;;;0.67;0.60;;;21.40;99.90;;;21.68;49.21;101256.00;4926628;28;97689;-44
2023/07/13 06:36:04;;;;;;;0.97;0.53;;;21.40;99.90;;;21.69;49.92;101264.91;4919784;28;97550;-44
2023/07/13 06:38:31;;;;;;;1.60;0.63;;;21.40;99.90;;;21.66;49.94;101260.63;4923275;28;97807;-43
2023/07/13 06:40:57;;;;;;;2.00;0.60;;;21.30;99.90;;;21.66;49.19;101259.78;4914020;28;97629;-43
2023/07/13 06:43:24;;;;;;;0.50;0.50;;;21.30;99.90;;;21.67;49.66;101267.72;4929313;28;97494;-42
2023/07/13 06:45:51;;;;;;;1.83;0.60;;;21.30;99.90;;;21.69;49.58;101273.84;4915904;28;98144;-45
2023/07/13 06:48:18;;;;;;;1.37;0.63;;;21.40;99.90;;;21.63;49.40;101266.25;4930552;28;106484;-42
2023/07/13 06:50:45;;;;;;;2.67;0.60;;;21.30;99.90;;;21.57;51.30;101266.69;4920838;28;101759;-44
2023/07/13 06:53:12;;;;;;;1.83;0.67;;;21.30;99.90;;;21.65;50.29;101268.81;4916424;28;97439;-44
2023/07/13 06:55:39;;;;;;;2.83;0.90;;;21.30;99.90;;;21.61;49.41;101265.50;4930207;28;97741;-44
2023/07/13 06:58:05;;;;;;;3.17;0.80;;;21.40;99.90;;;21.60;49.86;101266.47;4913288;28;97642;-45
2023/07/13 07:00:31;;;;;;;1.30;0.70;;;21.30;99.90;;;21.64;50.37;101270.63;4943988;28;97850;-44
2023/07/13 07:02:56;;;;;;;1.67;0.60;;;21.30;99.90;;;21.58;49.52;101263.03;4920783;28;98803;-44
2023/07/13 07:05:22;;;;;;;1.77;0.57;;;21.30;99.90;;;21.62;50.61;101269.88;4924211;28;113392;-43
2023/07/13 07:07:53;;;;;;;0.60;0.60;;;21.30;99.90;;;21.62;49.67;101275.25;4930613;28;98184;-45
2023/07/13 07:10:20;;;;;;;4.63;0.73;;;21.40;99.90;;;21.69;51.09;101275.66;4928701;28;100499;-44
2023/07/13 07:12:46;;;;;;;0.93;0.60;;;21.40;99.90;;;21.71;50.67;101272.91;4939436;28;97226;-44
2023/07/13 07:15:12;;;;;;;2.30;1.27;;;21.40;99.90;;;21.72;50.25;101280.84;4936548;28;97516;-44
2023/07/13 07:17:38;;;;;;;4.50;0.90;;;21.50;99.90;;;21.71;50.14;101280.94;4928141;28;97828;-44
2023/07/13 07:20:05;;;;;;;2.67;0.90;;;21.50;99.90;;;21.64;50.06;101273.31;4932133;28;113488;-42
2023/07/13 07:22:31;;;;;;;2.93;0.70;;;21.40;99.90;;;21.65;50.20;101280.41;4933146;28;97808;-43
2023/07/13 07:24:58;;;;;;;3.07;0.80;;;21.40;99.90;;;21.69;50.61;101284.56;4927439;28;116466;-44
2023/07/13 07:27:24;;;;;;;4.10;1.33;;;21.40;99.90;;;21.72;50.44;101290.72;4929877;28;97236;-42
2023/07/13 07:29:50;;;;;;;3.63;0.83;;;21.50;99.90;;;21.81;50.37;101290.03;4931813;28;98040;-45
2023/07/13 07:32:16;;;;;;;2.13;0.80;;;21.60;99.90;;;21.82;50.50;101289.06;4922637;28;97771;-46
2023/07/13 07:34:41;;;;;;;1.70;0.60;;;21.60;99.90;;;21.84;50.21;101295.16;4923010;28;97482;-44
2023/07/13 07:37:12;;;;;;;1.90;0.90;;;21.60;99.90;;;21.85;50.49;101295.09;4928986;28;108450;-45
2023/07/13 07:39:38;;;;;;;6.80;1.47;;;21.60;99.90;;;21.84;49.81;101293.34;4924448;28;97594;-44
2023/07/13 07:42:04;;;;;;;1.57;0.97;;;21.60;99.90;;;21.92;50.84;101298.16;4917272;28;98210;-43
2023/07/13 07:44:34;;;;;;;2.73;1.50;;;21.70;99.90;;;21.90;50.51;101300.13;4927227;28;98218;-43
2023/07/13 07:47:01;;;;;;;4.00;1.40;;;21.70;99.90;;;21.88;50.11;101297.53;4928020;28;101158;-43
2023/07/13 07:49:27;;;;;;;5.23;1.40;;;21.70;99.90;;;21.92;50.49;101290.97;4928076;28;97565;-42
2023/07/13 07:51:53;;;;;;;2.30;1.20;;;21.70;99.90;;;21.93;49.96;101290.00;4931439;28;97718;-42
2023/07/13 07:54:18;;;;;;;2.60;1.33;;;21.70;99.90;;;22.02;50.45;101298.38;4929684;28;113929;-43
2023/07/13 07:56:44;;;;;;;6.23;0.90;;;21.80;99.90;;;22.04;49.99;101289.22;4928672;28;120256;-43
2023/07/13 07:59:10;;;;;;;4.17;1.10;;;21.80;99.90;;;22.03;49.72;101295.56;4921885;28;117693;-45
2023/07/13 08:01:37;;;;;;;2.10;1.03;;;21.80;99.90;;;22.06;50.51;101295.34;4930197;28;97338;-42
2023/07/13 08:04:03;;;;;;;3.30;1.00;;;21.90;99.90;;;22.11;50.11;101293.19;4932235;28;97361;-42
2023/07/13 08:06:28;;;;;;;4.27;1.00;;;21.90;99.90;;;22.06;50.52;101302.56;4918729;28;98694;-44
2023/07/13 08:08:55;;;;;;;2.57;0.97;;;21.80;99.90;;;22.08;49.51;101297.94;4933013;28;97366;-43
2023/07/13 08:11:22;;;;;;;1.93;0.93;;;21.90;99.90;;;22.11;49.66;101298.56;4925465;28;97477;-44
2023/07/13 08:13:47;;;;;;;3.73;1.20;;;21.90;99.90;;;22.15;49.72;101305.44;4930483;28;97692;-43
2023/07/13 08:16:13;;;;;;;2.53;1.10;;;22.00;99.90;;;22.16;49.34;101301.78;4928034;28;99163;-44
2023/07/13 08:18:39;;;;;;;3.07;0.93;;;22.00;99.90;;;22.18;49.88;101305.19;4910568;28;99270;-42
2023/07/13 08:21:06;;;;;;;2.77;1.10;;;21.90;99.90;;;22.24;50.16;101298.50;4927136;28;112668;-43
2023/07/13 08:23:33;;;;;;;2.07;0.93;;;22.00;99.90;;;22.23;49.78;101296.78;4926438;28;97575;-42
2023/07/13 08:26:01;;;;;;;2.00;0.80;;;22.10;99.90;;;22.25;49.18;101290.31;4931281;28;97690;-42
2023/07/13 08:28:27;;;;;;;1.80;0.80;;;22.00;99.90;;;22.31;49.90;101290.84;4930737;28;97413;-42
2023/07/13 08:30:53;;;;;;;3.07;1.20;;;22.10;99.90;;;22.28;49.13;101297.31;4941045;28;97266;-43
2023/07/13 08:33:23;;;;;;;1.90;0.73;;;22.10;99.90;;;22.29;49.36;101295.50;4915755;28;103361;-43
2023/07/13 08:35:49;;;;;;;3.43;1.20;;;22.10;99.90;;;22.29;49.78;101285.59;4942242;28;97748;-47
2023/07/13 08:38:17;;;;;;;2.27;0.90;;;22.10;99.90;;;22.27;49.77;101291.06;4929763;28;97397;-44
2023/07/13 08:40:44;;;;;;;3.87;1.27;;;22.10;99.90;;;22.23;49.61;101291.41;4925807;28;97597;-45
2023/07/13 08:43:17;;;;;;;3.83;1.10;;;22.00;99.90;;;22.27;49.61;101283.00;4934687;28;97219;-42
2023/07/13 08:45:47;;;;;;;1.17;0.90;;;22.00;99.90;;;22.32;49.71;101279.13;4924471;28;99061;-45
2023/07/13 08:48:28;;;;;;;3.47;1.23;;;22.10;99.90;;;22.37;49.88;101285.00;4913656;28;98928;-44
2023/07/13 08:51:17;;;;;;;2.20;1.00;;;22.10;99.90;;;22.37;49.80;101287.69;4921136;28;98141;-42
2023/07/13 08:53:54;;;;;;;1.93;1.30;;;22.20;99.90;;;22.36;49.50;101286.00;4926456;28;97576;-42
2023/07/13 08:56:27;;;;;;;1.10;0.97;;;22.20;99.90;;;22.39;49.83;101285.75;4924415;28;104762;-46
2023/07/13 08:59:13;;;;;;;1.07;0.93;;;22.20;99.90;;;22.46;49.56;101287.03;4930051;28;97577;-45
2023/07/13 09:02:27;;;;;;;1.87;1.07;;;22.30;99.90;;;22.45;49.25;101288.84;4927412;28;97738;-44
2023/07/13 09:05:10;;;;;;;1.80;1.07;;;22.30;99.90;;;22.44;49.72;101276.38;4904966;28;97723;-44
2023/07/13 09:08:07;;;;;;;1.27;1.17;;;22.30;99.90;;;22.50;49.41;101283.13;4930230;28;101735;-43
2023/07/13 09:10:45;;;;;;;2.03;1.33;;;22.30;99.90;;;22.47;49.32;101284.22;4934472;28;102509;-43
2023/07/13 09:13:29;;;;;;;3.23;1.17;;;22.30;99.90;;;22.49;49.53;101286.78;4947648;28;97645;-42
2023/07/13 09:15:55;;;;;;;3.23;0.90;;;22.30;99.90;;;22.45;49.72;101288.00;4929137;28;97405;-45
2023/07/13 09:18:35;;;;;;;1.53;1.20;;;22.30;99.90;;;22.50;49.60;101283.13;4926795;28;98987;-46
2023/07/13 09:21:12;;;;;;;1.43;1.20;;;22.30;99.90;;;22.51;49.05;101284.81;4929666;28;100360;-51
2023/07/13 09:23:38;;;;;;;2.87;1.67;;;22.30;99.90;;;22.44;49.57;101286.28;4926669;28;96817;-45
2023/07/13 09:26:15;;;;;;;2.30;1.00;;;22.30;99.90;;;22.48;49.47;101285.91;4933673;28;97595;-45
2023/07/13 09:28:45;;;;;;;3.10;0.97;;;22.30;99.90;;;22.50;49.36;101283.13;4921808;28;101276;-46
2023/07/13 09:31:41;;;;;;;2.30;0.90;;;22.30;99.90;;;22.55;49.55;101286.31;4931607;28;97366;-44
2023/07/13 09:34:12;;;;;;;1.00;0.90;;;22.40;99.90;;;22.55;49.43;101287.16;4924015;28;97522;-46
2023/07/13 09:36:38;;;;;;;2.80;0.90;;;22.40;99.90;;;22.54;49.03;101284.59;4927839;28;97381;-42
2023/07/13 09:39:25;;;;;;;1.63;1.03;;;22.40;99.90;;;22.49;49.19;101282.25;4924766;28;97993;-47
2023/07/13 09:42:01;;;;;;;0.80;0.70;;;22.30;99.90;;;22.47;49.23;101284.22;4941764;28;101666;-43
2023/07/13 09:44:54;;;;;;;3.20;1.00;;;22.30;99.90;;;22.51;49.36;101284.81;4920367;28;97698;-44
2023/07/13 09:47:33;;;;;;;3.43;0.90;;;22.40;99.90;;;22.49;49.52;101286.78;4938159;28;97690;-42
2023/07/13 09:50:16;;;;;;;3.87;1.10;;;22.30;99.90;;;22.48;49.56;101285.06;4933684;28;103531;-42
2023/07/13 09:52:50;;;;;;;2.80;1.23;;;22.30;99.90;;;22.42;49.55;101290.88;4926630;28;101783;-42
2023/07/13 09:55:34;;;;;;;4.00;1.47;;;22.30;99.90;;;22.48;49.42;101295.81;4925907;28;97904;-46
2023/07/13 09:58:25;;;;;;;1.43;1.07;;;22.30;99.90;;;22.46;48.93;101293.25;4928675;28;97586;-44
2023/07/13 10:01:04;;;;;;;1.97;0.83;;;22.30;99.90;;;22.44;48.52;101294.34;4933290;28;101040;-42
2023/07/13 10:03:37;;;;;;;1.50;1.07;;;22.30;99.90;;;22.42;48.63;101296.25;4942661;28;101846;-43
2023/07/13 10:06:26;;;;;;;2.80;0.93;;;22.30;99.90;;;22.49;48.72;101300.22;4940872;28;97593;-43
2023/07/13 10:08:54;;;;;;;1.77;1.03;;;22.40;99.90;;;22.53;48.14;101293.63;4934290;28;97850;-42
2023/07/13 10:11:24;;;;;;;4.10;0.97;;;22.40;99.90;;;22.50;48.04;101305.47;4929514;28;98111;-45
2023/07/13 10:13:59;;;;;;;2.40;0.80;;;22.40;99.90;;;22.49;48.97;101297.53;4926477;28;97406;-43
2023/07/13 10:16:32;;;;;;;2.50;1.10;;;22.40;99.90;;;22.55;48.58;101297.06;4936147;28;97818;-43
2023/07/13 10:19:20;;;;;;;3.57;0.90;;;22.40;99.90;;;22.56;48.01;101306.84;4915735;28;97509;-44
2023/07/13 10:21:59;;;;;;;1.73;0.70;;;22.40;99.90;;;22.55;48.87;101299.75;4922872;28;103162;-44
2023/07/13 10:24:37;;;;;;;1.97;0.87;;;22.50;99.90;;;22.57;48.47;101305.88;4924505;28;97608;-43
2023/07/13 10:27:17;;;;;;;3.37;0.97;;;22.50;99.90;;;22.65;48.55;101297.22;4929190;28;97501;-43
2023/07/13 10:30:08;;;;;;;3.30;0.87;;;22.50;99.90;;;22.64;47.97;101304.44;4934865;28;97832;-43